Beloit, Wisconsin
Current Conditions -  °F | °C
As of 11:55 PM on Thursday 27 Nov 2014 (Local Time) from KJVL Reporting Station
Clear Clear  
Wind Chill: 14°   Ceiling: Unl
Heat Index: 14°   Visibility: 10mi
Dew Point: 10°   Wind: 0mph
Humidity: 86%   Direction: NA
Pressure: 30.35"   Gusts: NA
Location:  42.51°N, 89.03°W
Report Text: KJVL 280555Z AUTO 00000KT 10SM CLR M10/M12 A3035 RMK AO2
Loading
Personal Weather Stations






























Interactive Weather Map New forecast layout! Learn more

10-Day Weather Forecast

Advertisements
Track Severe Weather on mobile